Time;durP1;ratioP1;P1;durP2;ratioP2;P2;SDS_P1;SDS_P2;PMS_P1;PMS_P2;Temp;Humidity;BMP_temperature;BMP_pressure;BME280_temperature;BME280_humidity;BME280_pressure;Samples;Min_cycle;Max_cycle;Signal;HPM_P1;HPM_P2
2021/01/20 00:00:54;;;;;;;0.10;0.10;;;;;;;-22.09;74.05;101340.84;1756205;81;21447;-48
2021/01/20 00:03:22;;;;;;;0.10;0.10;;;;;;;-22.10;74.09;101336.54;1756162;81;21146;-49
2021/01/20 00:05:50;;;;;;;0.10;0.10;;;;;;;-22.11;74.10;101330.97;1756392;81;21178;-48
2021/01/20 00:08:17;;;;;;;0.10;0.10;;;;;;;-22.11;73.97;101333.56;1756387;81;21130;-48
2021/01/20 00:10:46;;;;;;;2.40;0.93;;;;;;;-22.16;73.92;101331.95;1756503;81;21150;-49
2021/01/20 00:13:15;;;;;;;0.60;0.60;;;;;;;-22.16;73.98;101339.73;1756348;81;21134;-48
2021/01/20 00:15:43;;;;;;;1.60;1.50;;;;;;;-22.13;74.06;101332.30;1756447;81;21134;-48
2021/01/20 00:18:10;;;;;;;0.10;0.10;;;;;;;-22.14;74.00;101328.87;1756494;81;21696;-48
2021/01/20 00:20:38;;;;;;;0.20;0.20;;;;;;;-22.14;74.03;101332.76;1756554;81;21333;-48
2021/01/20 00:23:05;;;;;;;0.13;0.13;;;;;;;-22.12;74.05;101331.87;1756587;81;21198;-49
2021/01/20 00:25:33;;;;;;;0.20;0.20;;;;;;;-22.10;74.09;101328.77;1756554;80;21613;-49
2021/01/20 00:28:00;;;;;;;0.30;0.30;;;;;;;-22.08;74.16;101331.70;1756384;81;21455;-48
2021/01/20 00:30:27;;;;;;;0.13;0.13;;;;;;;-22.03;74.17;101332.86;1756455;80;21127;-48
2021/01/20 00:32:55;;;;;;;0.10;0.10;;;;;;;-22.05;73.93;101328.16;1756580;81;21126;-48
2021/01/20 00:35:24;;;;;;;0.10;0.10;;;;;;;-22.15;73.80;101328.48;1756489;80;21163;-48
2021/01/20 00:37:51;;;;;;;0.20;0.20;;;;;;;-22.24;73.79;101324.91;1756519;81;21427;-48
2021/01/20 00:40:18;;;;;;;1.90;1.60;;;;;;;-22.29;73.84;101328.10;1756329;81;21147;-48
2021/01/20 00:42:46;;;;;;;0.10;0.10;;;;;;;-22.30;73.89;101327.69;1756479;81;21166;-48
2021/01/20 00:45:13;;;;;;;0.30;0.30;;;;;;;-22.30;73.77;101327.69;1756489;81;21143;-48
2021/01/20 00:47:41;;;;;;;0.20;0.20;;;;;;;-22.36;73.73;101330.03;1756643;80;21154;-48
2021/01/20 00:50:10;;;;;;;0.17;0.17;;;;;;;-22.38;73.78;101333.56;1756343;81;21098;-48
2021/01/20 00:52:37;;;;;;;0.40;0.40;;;;;;;-22.36;73.83;101330.48;1756368;81;21454;-48
2021/01/20 00:55:08;;;;;;;4.80;4.40;;;;;;;-22.38;73.71;101334.41;1756380;80;21174;-48
2021/01/20 00:57:36;;;;;;;0.10;0.10;;;;;;;-22.45;73.53;101334.65;1756454;81;21135;-48
2021/01/20 01:00:05;;;;;;;0.10;0.10;;;;;;;-22.54;73.47;101329.32;1756263;81;21107;-48
2021/01/20 01:02:35;;;;;;;0.10;0.10;;;;;;;-22.60;73.51;101335.97;1754478;81;21419;-48
2021/01/20 01:05:06;;;;;;;0.00;0.00;;;;;;;-22.62;73.58;101334.73;1754837;81;21596;-48
2021/01/20 01:07:34;;;;;;;0.10;0.10;;;;;;;-22.59;73.69;101334.63;1755019;81;21415;-48
2021/01/20 01:10:02;;;;;;;0.10;0.10;;;;;;;-22.56;73.71;101333.70;1754805;81;21163;-48
2021/01/20 01:12:47;;;;;;;0.10;0.10;;;;;;;-22.48;73.74;101332.16;1847803;76;27315;-48
2021/01/20 01:15:15;;;;;;;0.10;0.10;;;;;;;-22.49;73.74;101330.48;1799774;78;21118;-48
2021/01/20 01:17:42;;;;;;;0.10;0.10;;;;;;;-22.45;73.80;101334.65;1786023;80;21141;-48
2021/01/20 01:20:12;;;;;;;0.10;0.10;;;;;;;-22.42;73.77;101341.89;1785916;78;21184;-48
2021/01/20 01:22:39;;;;;;;0.10;0.10;;;;;;;-22.42;73.66;101339.73;1786037;80;21165;-48
2021/01/20 01:25:08;;;;;;;0.13;0.13;;;;;;;-22.51;73.47;101338.28;1786042;78;21094;-47
2021/01/20 01:27:36;;;;;;;0.10;0.10;;;;;;;-22.60;73.39;101336.80;1755605;80;21098;-48
2021/01/20 01:30:05;;;;;;;0.10;0.10;;;;;;;-22.68;73.37;101328.43;1785996;78;21696;-48
2021/01/20 01:32:35;;;;;;;0.60;0.60;;;;;;;-22.72;73.41;101333.29;1785881;80;21129;-48
2021/01/20 01:35:05;;;;;;;0.10;0.10;;;;;;;-22.72;73.54;101335.88;1786141;78;21149;-48
2021/01/20 01:37:33;;;;;;;0.10;0.10;;;;;;;-22.71;73.52;101347.95;1785933;80;21099;-48
2021/01/20 01:40:13;;;;;;;0.10;0.10;;;;;;;-22.72;73.35;101341.06;1829599;76;27354;-48
2021/01/20 01:42:42;;;;;;;0.30;0.30;;;;;;;-22.82;73.22;101348.70;1781690;80;21139;-49
2021/01/20 01:45:12;;;;;;;0.10;0.10;;;;;;;-22.88;73.22;101348.90;1786211;78;21105;-48
2021/01/20 01:47:39;;;;;;;0.17;0.17;;;;;;;-22.94;73.22;101341.29;1786218;80;21118;-48
2021/01/20 01:50:09;;;;;;;0.10;0.10;;;;;;;-22.95;73.31;101342.20;1786185;78;21533;-48
2021/01/20 01:52:37;;;;;;;0.10;0.10;;;;;;;-22.93;73.39;101345.14;1756237;80;21118;-48
2021/01/20 01:55:21;;;;;;;0.10;0.10;;;;;;;-22.89;73.41;101354.95;1781800;78;21560;-48
2021/01/20 01:58:07;;;;;;;0.17;0.17;;;;;;;-22.89;73.31;101353.23;1786140;80;21177;-48
2021/01/20 02:00:37;;;;;;;0.10;0.10;;;;;;;-22.94;73.18;101354.23;1755483;80;21166;-47
2021/01/20 02:03:06;;;;;;;0.10;0.10;;;;;;;-22.97;73.23;101356.95;1783582;80;21130;-48
2021/01/20 02:05:34;;;;;;;0.50;0.50;;;;;;;-22.95;73.32;101355.98;1786226;78;21141;-48
2021/01/20 02:08:04;;;;;;;0.30;0.30;;;;;;;-22.94;73.32;101362.00;1786050;80;21118;-48
2021/01/20 02:10:34;;;;;;;0.20;0.20;;;;;;;-22.95;73.29;101359.86;1785654;78;21134;-48
2021/01/20 02:13:27;;;;;;;1.30;1.30;;;;;;;-22.92;73.40;101364.95;1755453;80;21651;-48
2021/01/20 02:16:23;;;;;;;0.10;0.10;;;;;;;-22.93;73.32;101363.27;1786198;78;21149;-48
2021/01/20 02:18:53;;;;;;;0.20;0.20;;;;;;;-22.97;73.29;101368.59;1785648;78;21153;-48
2021/01/20 02:22:09;;;;;;;0.07;0.07;;;;;;;-22.98;73.41;101372.94;1785453;80;21514;-47
2021/01/20 02:24:48;;;;;;;0.10;0.10;;;;;;;-22.96;73.40;101368.98;1750829;80;21169;-48
2021/01/20 02:27:56;;;;;;;0.10;0.10;;;;;;;-22.87;73.46;101365.66;1847646;76;27364;-48
2021/01/20 02:30:24;;;;;;;0.20;0.20;;;;;;;-22.88;73.46;101371.75;1797765;78;21169;-48
2021/01/20 02:32:57;;;;;;;0.10;0.10;;;;;;;-22.89;73.28;101373.95;1756726;80;21137;-47
2021/01/20 02:35:41;;;;;;;0.10;0.10;;;;;;;-22.93;73.27;101377.95;1784747;80;21134;-48
2021/01/20 02:38:09;;;;;;;0.10;0.10;;;;;;;-22.90;73.34;101386.47;1786141;80;21091;-48
2021/01/20 02:40:38;;;;;;;0.10;0.10;;;;;;;-22.95;73.12;101379.28;1784932;80;21201;-48
2021/01/20 02:43:07;;;;;;;0.10;0.10;;;;;;;-23.05;73.02;101387.78;1785326;80;21192;-48
2021/01/20 02:45:57;;;;;;;0.10;0.10;;;;;;;-23.06;73.06;101388.69;1857818;76;27855;-48
2021/01/20 02:48:24;;;;;;;0.77;0.77;;;;;;;-23.12;73.11;101390.58;1825113;78;21071;-48
2021/01/20 02:50:52;;;;;;;0.10;0.10;;;;;;;-23.13;73.03;101398.80;1792979;78;21134;-48
2021/01/20 02:53:20;;;;;;;0.10;0.10;;;;;;;-23.18;72.96;101395.48;1823461;78;21154;-48
2021/01/20 02:55:58;;;;;;;0.10;0.10;;;;;;;-23.23;72.92;101389.59;1727865;81;21120;-48
2021/01/20 02:58:46;;;;;;;0.10;0.10;;;;;;;-23.25;73.02;101392.66;1786945;80;21130;-48
2021/01/20 03:01:19;;;;;;;0.20;0.20;;;;;;;-23.24;72.99;101386.16;1781545;80;21151;-48
2021/01/20 03:03:47;;;;;;;0.10;0.10;;;;;;;-23.27;72.96;101381.05;1755250;80;21193;-48
2021/01/20 03:06:16;;;;;;;0.10;0.10;;;;;;;-23.26;72.94;101384.51;1764308;81;21578;-48
2021/01/20 03:08:44;;;;;;;0.10;0.10;;;;;;;-23.27;72.90;101375.03;1757363;80;21098;-48
2021/01/20 03:11:11;;;;;;;0.10;0.10;;;;;;;-23.29;72.91;101374.22;1788461;78;21158;-48
2021/01/20 03:13:39;;;;;;;0.10;0.10;;;;;;;-23.28;72.96;101378.52;1788571;80;21122;-48
2021/01/20 03:16:07;;;;;;;0.10;0.10;;;;;;;-23.25;73.05;101373.25;1788471;78;21169;-47
2021/01/20 03:18:34;;;;;;;0.10;0.10;;;;;;;-23.22;73.08;101371.42;1777571;80;21139;-48
2021/01/20 03:21:02;;;;;;;0.10;0.10;;;;;;;-23.19;73.13;101370.48;1777571;80;21140;-48
2021/01/20 03:23:29;;;;;;;0.20;0.20;;;;;;;-23.16;73.16;101372.14;1788656;80;21102;-48
2021/01/20 03:25:56;;;;;;;0.10;0.10;;;;;;;-23.13;73.22;101374.21;1777751;80;21617;-48
2021/01/20 03:28:24;;;;;;;0.17;0.17;;;;;;;-23.09;73.20;101369.36;1788638;80;21094;-48
2021/01/20 03:30:51;;;;;;;0.10;0.10;;;;;;;-23.06;73.14;101382.22;1771417;81;21131;-48
2021/01/20 03:33:19;;;;;;;0.10;0.10;;;;;;;-23.07;73.08;101390.85;1788596;80;21098;-48
2021/01/20 03:35:46;;;;;;;0.10;0.10;;;;;;;-23.07;73.12;101380.50;1777510;80;21115;-48
2021/01/20 03:38:13;;;;;;;0.10;0.10;;;;;;;-23.07;73.02;101380.50;1777403;80;21111;-48
2021/01/20 03:40:40;;;;;;;0.10;0.10;;;;;;;-23.14;72.78;101391.94;1788668;80;21158;-48
2021/01/20 03:43:08;;;;;;;0.10;0.10;;;;;;;-23.24;72.70;101391.76;1777703;80;21609;-48
2021/01/20 03:45:35;;;;;;;0.33;0.33;;;;;;;-23.31;72.67;101394.10;1788407;79;21078;-48
2021/01/20 03:48:03;;;;;;;0.20;0.20;;;;;;;-23.38;72.65;101390.01;1777583;80;21720;-48
2021/01/20 03:50:31;;;;;;;0.10;0.10;;;;;;;-23.42;72.69;101390.97;1777462;80;21530;-48
2021/01/20 03:52:59;;;;;;;0.10;0.10;;;;;;;-23.46;72.68;101392.34;1754446;80;21134;-48
2021/01/20 03:55:26;;;;;;;0.10;0.10;;;;;;;-23.47;72.72;101391.92;1762841;80;21167;-48
2021/01/20 03:57:53;;;;;;;0.10;0.10;;;;;;;-23.49;72.67;101399.32;1753295;81;21132;-47
2021/01/20 04:00:21;;;;;;;0.20;0.20;;;;;;;-23.52;72.67;101393.78;1779416;80;21458;-48
2021/01/20 04:02:49;;;;;;;0.17;0.17;;;;;;;-23.56;72.69;101388.30;1732525;82;21135;-47
2021/01/20 04:05:35;;;;;;;1.30;1.20;;;;;;;-23.53;72.72;101379.16;1809007;76;33289;-48
2021/01/20 04:08:02;;;;;;;0.10;0.10;;;;;;;-23.52;72.74;101378.27;1786148;80;21103;-48
2021/01/20 04:10:30;;;;;;;0.10;0.10;;;;;;;-23.46;72.71;101380.70;1786050;78;21221;-47
2021/01/20 04:12:57;;;;;;;0.10;0.10;;;;;;;-23.43;72.70;101382.81;1786102;80;21150;-48
2021/01/20 04:15:25;;;;;;;0.20;0.20;;;;;;;-23.42;72.72;101385.80;1786076;80;21122;-48
2021/01/20 04:17:52;;;;;;;0.20;0.20;;;;;;;-23.40;72.73;101391.78;1785969;80;21102;-48
2021/01/20 04:20:20;;;;;;;0.10;0.10;;;;;;;-23.38;72.78;101387.42;1786230;78;21154;-48
2021/01/20 04:22:47;;;;;;;1.33;1.33;;;;;;;-23.35;72.82;101398.97;1786205;80;21180;-48
2021/01/20 04:25:15;;;;;;;0.57;0.57;;;;;;;-23.37;72.64;101404.62;1786207;78;21590;-48
2021/01/20 04:27:42;;;;;;;0.10;0.10;;;;;;;-23.43;72.58;101397.88;1786362;80;21417;-47
2021/01/20 04:30:11;;;;;;;0.10;0.10;;;;;;;-23.50;72.51;101404.94;1786128;78;21122;-48
2021/01/20 04:32:38;;;;;;;0.10;0.10;;;;;;;-23.56;72.44;101398.65;1786149;80;21129;-47
2021/01/20 04:35:07;;;;;;;0.10;0.10;;;;;;;-23.61;72.40;101395.30;1786102;78;21437;-47
2021/01/20 04:37:35;;;;;;;1.50;1.40;;;;;;;-23.67;72.40;101398.06;1786021;80;21208;-48
2021/01/20 04:40:05;;;;;;;0.10;0.10;;;;;;;-23.69;72.47;101398.53;1785874;78;21572;-48
2021/01/20 04:42:33;;;;;;;0.10;0.10;;;;;;;-23.71;72.43;101402.89;1786214;80;21137;-48
2021/01/20 04:45:01;;;;;;;0.20;0.20;;;;;;;-23.75;72.42;101405.20;1786036;78;21189;-48
2021/01/20 04:47:29;;;;;;;0.10;0.10;;;;;;;-23.79;72.41;101407.44;1786085;80;21540;-48
2021/01/20 04:49:56;;;;;;;0.10;0.10;;;;;;;-23.80;72.48;101413.52;1785844;78;21110;-48
2021/01/20 04:52:24;;;;;;;0.20;0.20;;;;;;;-23.80;72.52;101407.05;1707151;80;21103;-48
2021/01/20 04:54:51;;;;;;;0.10;0.10;;;;;;;-23.77;72.60;101405.67;1785958;80;21130;-48
2021/01/20 04:57:19;;;;;;;1.37;1.37;;;;;;;-23.72;72.64;101415.45;1786143;80;21110;-48
2021/01/20 04:59:46;;;;;;;0.10;0.10;;;;;;;-23.68;72.67;101412.73;1786307;80;21138;-48
2021/01/20 05:02:14;;;;;;;0.10;0.10;;;;;;;-23.66;72.62;101416.13;1786129;80;21149;-48
2021/01/20 05:04:42;;;;;;;0.10;0.10;;;;;;;-23.67;72.62;101417.45;1785898;80;21106;-48
2021/01/20 05:07:10;;;;;;;0.20;0.20;;;;;;;-23.64;72.63;101411.35;1785957;80;21113;-48
2021/01/20 05:09:37;;;;;;;0.10;0.10;;;;;;;-23.63;72.66;101413.91;1786020;78;21142;-48
2021/01/20 05:12:06;;;;;;;0.10;0.10;;;;;;;-23.59;72.69;101415.52;1786197;80;21651;-48
2021/01/20 05:14:39;;;;;;;1.90;1.80;;;;;;;-23.56;72.73;101420.63;1755842;80;21129;-48
2021/01/20 05:17:10;;;;;;;0.10;0.10;;;;;;;-23.53;72.74;101417.96;1785460;80;21617;-48
2021/01/20 05:19:39;;;;;;;0.20;0.20;;;;;;;-23.49;72.73;101420.86;1785582;78;22338;-48
2021/01/20 05:22:08;;;;;;;0.10;0.10;;;;;;;-23.45;72.70;101424.23;1785595;80;21573;-48
2021/01/20 05:24:36;;;;;;;0.20;0.20;;;;;;;-23.45;72.69;101430.25;1785443;80;21141;-48
2021/01/20 05:27:04;;;;;;;0.10;0.10;;;;;;;-23.47;72.46;101434.60;1785451;80;21110;-48
2021/01/20 05:29:31;;;;;;;0.10;0.10;;;;;;;-23.57;72.31;101433.14;1785442;80;21537;-48
2021/01/20 05:32:17;;;;;;;0.10;0.10;;;;;;;-23.67;72.31;101438.98;1785437;80;21719;-49
2021/01/20 05:35:03;;;;;;;0.10;0.10;;;;;;;-23.74;72.29;101430.16;1785475;80;21547;-48
2021/01/20 05:37:31;;;;;;;1.17;1.13;;;;;;;-23.77;72.36;101431.53;1785515;80;21135;-48
2021/01/20 05:40:07;;;;;;;0.27;0.27;;;;;;;-23.76;72.43;101435.80;1755333;80;21437;-48
2021/01/20 05:42:51;;;;;;;0.20;0.20;;;;;;;-23.72;72.47;101429.68;1785617;80;21125;-48
2021/01/20 05:45:22;;;;;;;0.20;0.20;;;;;;;-23.69;72.47;101426.98;1758921;80;21213;-48
2021/01/20 05:48:05;;;;;;;0.10;0.10;;;;;;;-23.67;72.44;101425.21;1752769;81;21146;-47
2021/01/20 05:50:34;;;;;;;0.10;0.10;;;;;;;-23.65;72.44;101429.91;1767500;78;21138;-48
2021/01/20 05:53:11;;;;;;;0.10;0.10;;;;;;;-23.62;72.47;101432.41;1785397;80;21113;-49
2021/01/20 05:55:39;;;;;;;0.10;0.10;;;;;;;-23.61;72.47;101437.97;1776269;78;21547;-48
2021/01/20 05:58:06;;;;;;;0.10;0.10;;;;;;;-23.58;72.57;101443.55;1785162;80;21111;-48
2021/01/20 06:00:33;;;;;;;0.13;0.13;;;;;;;-23.51;72.67;101440.77;1785207;78;21479;-48
2021/01/20 06:03:01;;;;;;;0.10;0.10;;;;;;;-23.42;72.70;101451.76;1785123;80;21166;-48
2021/01/20 06:05:28;;;;;;;0.10;0.10;;;;;;;-23.42;72.58;101457.78;1789063;78;21105;-48
2021/01/20 06:07:56;;;;;;;0.10;0.10;;;;;;;-23.41;72.61;101454.73;1785153;80;21113;-48
2021/01/20 06:10:24;;;;;;;0.10;0.10;;;;;;;-23.37;72.56;101456.37;1759864;80;21568;-48
2021/01/20 06:12:53;;;;;;;3.03;2.83;;;;;;;-23.35;72.61;101459.77;1759884;81;21186;-48
2021/01/20 06:15:22;;;;;;;0.20;0.20;;;;;;;-23.36;72.56;101458.93;1773598;80;21555;-48
2021/01/20 06:17:51;;;;;;;0.10;0.10;;;;;;;-23.32;72.63;101459.69;1791341;80;21133;-48
2021/01/20 06:20:23;;;;;;;0.10;0.10;;;;;;;-23.23;72.69;101459.46;1765055;80;21122;-48
2021/01/20 06:22:52;;;;;;;0.10;0.10;;;;;;;-23.14;72.74;101451.89;1765181;80;21129;-49
2021/01/20 06:25:29;;;;;;;0.10;0.10;;;;;;;-23.04;72.80;101451.63;1790748;80;21161;-48
2021/01/20 06:28:08;;;;;;;0.10;0.10;;;;;;;-22.92;72.83;101450.84;1755707;81;21138;-48
2021/01/20 06:30:41;;;;;;;0.67;0.67;;;;;;;-22.81;72.87;101448.81;1715857;82;21094;-48
2021/01/20 06:33:14;;;;;;;2.67;1.13;;;;;;;-22.66;72.99;101452.72;1791873;80;21576;-48
2021/01/20 06:35:44;;;;;;;0.10;0.10;;;;;;;-22.50;73.10;101458.30;1791815;78;21137;-48
2021/01/20 06:38:32;;;;;;;0.10;0.10;;;;;;;-22.36;73.08;101464.78;1791426;80;21153;-48
2021/01/20 06:41:09;;;;;;;0.20;0.20;;;;;;;-22.24;73.05;101460.98;1790553;78;21670;-48
2021/01/20 06:43:45;;;;;;;0.10;0.10;;;;;;;-22.12;73.11;101469.28;1792121;79;21149;-48
2021/01/20 06:46:18;;;;;;;0.13;0.13;;;;;;;-21.99;73.18;101468.84;1791221;79;21165;-48
2021/01/20 06:49:01;;;;;;;0.40;0.40;;;;;;;-21.92;73.05;101479.89;1792017;79;21110;-48
2021/01/20 06:51:29;;;;;;;0.10;0.10;;;;;;;-21.85;73.16;101476.21;1728881;82;21178;-48
2021/01/20 06:54:06;;;;;;;0.10;0.10;;;;;;;-21.74;73.17;101474.11;1747878;81;21161;-48
2021/01/20 06:56:41;;;;;;;0.40;0.40;;;;;;;-21.67;73.12;101472.64;1794309;79;20994;-49
2021/01/20 06:59:23;;;;;;;0.20;0.20;;;;;;;-21.56;73.25;101475.27;1783249;79;21112;-48
2021/01/20 07:02:09;;;;;;;0.20;0.20;;;;;;;-21.42;73.33;101477.42;1772391;80;21116;-48
2021/01/20 07:04:45;;;;;;;0.10;0.10;;;;;;;-21.24;73.47;101476.39;1769406;80;21180;-48
2021/01/20 07:07:13;;;;;;;0.20;0.20;;;;;;;-21.05;73.55;101480.91;1776129;80;21138;-48
2021/01/20 07:10:01;;;;;;;0.10;0.10;;;;;;;-20.87;73.57;101479.42;1734452;81;21264;-49
2021/01/20 07:12:31;;;;;;;0.10;0.10;;;;;;;-20.72;73.64;101494.08;1734576;82;21134;-48
2021/01/20 07:15:03;;;;;;;0.10;0.10;;;;;;;-20.52;73.79;101503.31;1755348;80;21127;-49
2021/01/20 07:17:33;;;;;;;;;;;;;;;-20.32;73.90;101504.31;1732342;80;21133;-48
2021/01/20 07:20:00;;;;;;;2.27;1.90;;;;;;;-20.13;73.88;101497.99;1753779;80;20281;-48
2021/01/20 07:22:28;;;;;;;0.10;0.10;;;;;;;-19.96;73.97;101501.64;1786725;80;21182;-48
2021/01/20 07:24:55;;;;;;;0.10;0.10;;;;;;;-19.78;74.04;101488.83;1744031;80;21156;-48
2021/01/20 07:27:23;;;;;;;0.10;0.10;;;;;;;-19.60;74.10;101494.60;1730306;81;21173;-48
2021/01/20 07:29:50;;;;;;;0.30;0.30;;;;;;;-19.43;74.25;101491.33;1755506;80;21170;-48
2021/01/20 07:32:19;;;;;;;0.10;0.10;;;;;;;-19.22;74.30;101491.36;1727404;81;21219;-48
2021/01/20 07:34:47;;;;;;;0.10;0.10;;;;;;;-19.02;74.43;101486.16;1748832;80;21170;-48
2021/01/20 07:37:16;;;;;;;4.90;1.93;;;;;;;-18.79;74.53;101498.20;1754703;81;21438;-48
2021/01/20 07:39:45;;;;;;;1.53;1.43;;;;;;;-18.58;74.65;101496.88;1724247;83;21213;-48
2021/01/20 07:42:12;;;;;;;0.10;0.10;;;;;;;-18.35;74.79;101495.39;1734642;82;21167;-48
2021/01/20 07:44:47;;;;;;;0.10;0.10;;;;;;;-18.15;74.87;101498.86;1755686;81;21139;-48
2021/01/20 07:47:15;;;;;;;0.60;0.60;;;;;;;-17.96;74.97;101497.58;1740741;81;21731;-48
2021/01/20 07:49:53;;;;;;;0.10;0.10;;;;;;;-17.77;75.05;101499.23;1750260;80;21571;-48
2021/01/20 07:52:20;;;;;;;0.20;0.20;;;;;;;-17.57;75.08;101502.67;1756726;80;21139;-48
2021/01/20 07:54:51;;;;;;;0.17;0.17;;;;;;;-17.36;75.19;101510.77;1751509;81;21210;-48
2021/01/20 07:57:20;;;;;;;1.43;1.40;;;;;;;-17.14;75.34;101507.11;1751482;81;21154;-48
2021/01/20 08:00:03;;;;;;;0.10;0.10;;;;;;;-16.92;75.45;101507.73;1751352;81;21304;-48
2021/01/20 08:02:32;;;;;;;0.10;0.10;;;;;;;-16.68;75.54;101512.63;1753365;81;21556;-48
2021/01/20 08:05:01;;;;;;;0.87;0.87;;;;;;;-16.45;75.58;101514.53;1732344;82;20999;-48
2021/01/20 08:07:28;;;;;;;0.50;0.50;;;;;;;-16.23;75.56;101512.48;1717592;83;21130;-48
2021/01/20 08:09:55;;;;;;;0.83;0.83;;;;;;;-16.01;75.64;101510.03;1738420;81;21217;-48
2021/01/20 08:12:26;;;;;;;0.40;0.40;;;;;;;-15.78;75.66;101510.09;1748383;80;21186;-48
2021/01/20 08:14:54;;;;;;;3.90;2.20;;;;;;;-15.58;75.56;101507.64;1720042;81;21183;-48
2021/01/20 08:17:21;;;;;;;0.30;0.30;;;;;;;-15.39;75.55;101518.80;1723690;83;21115;-49
2021/01/20 08:19:49;;;;;;;0.10;0.10;;;;;;;-15.18;75.57;101516.28;1720493;81;21131;-48
2021/01/20 08:22:17;;;;;;;1.93;1.80;;;;;;;-15.00;75.50;101518.78;1720891;81;21142;-48
2021/01/20 08:24:51;;;;;;;0.10;0.10;;;;;;;-14.82;75.41;101522.95;1718983;81;21126;-48
2021/01/20 08:27:28;;;;;;;0.10;0.10;;;;;;;-14.65;75.31;101523.75;1724022;83;21161;-48
2021/01/20 08:29:57;;;;;;;1.50;1.40;;;;;;;-14.51;75.20;101520.66;1715327;83;21166;-48
2021/01/20 08:32:25;;;;;;;2.10;0.50;;;;;;;-14.33;75.22;101529.68;1691350;83;21139;-48
2021/01/20 08:34:53;;;;;;;0.10;0.10;;;;;;;-14.16;75.15;101527.35;1742789;81;21127;-48
2021/01/20 08:37:37;;;;;;;0.67;0.67;;;;;;;-14.01;74.97;101523.78;1736626;80;21196;-48
2021/01/20 08:40:06;;;;;;;0.00;0.00;;;;;;;-13.84;74.87;101525.81;1714390;82;21213;-48
2021/01/20 08:42:39;;;;;;;0.20;0.20;;;;;;;-13.67;74.66;101525.63;1731928;81;21142;-48
2021/01/20 08:45:21;;;;;;;0.10;0.10;;;;;;;-13.49;74.47;101527.08;1755668;81;21226;-48
2021/01/20 08:48:08;;;;;;;1.98;1.05;;;;;;;-13.32;74.23;101525.17;1770577;81;24460;-48
2021/01/20 08:50:45;;;;;;;0.00;0.00;;;;;;;-13.18;74.02;101523.75;1763419;79;21442;-48
2021/01/20 08:53:26;;;;;;;0.10;0.10;;;;;;;-13.04;73.80;101518.92;1714256;82;21122;-48
2021/01/20 08:55:55;;;;;;;4.37;1.75;;;;;;;-12.92;73.34;101516.80;1746032;81;21429;-48
2021/01/20 08:58:31;;;;;;;0.10;0.10;;;;;;;-12.79;72.96;101511.55;1729737;81;21131;-48
2021/01/20 09:01:07;;;;;;;0.10;0.10;;;;;;;-12.67;72.62;101517.31;1729700;81;21151;-48
2021/01/20 09:03:37;;;;;;;0.70;0.70;;;;;;;-12.49;72.56;101519.66;1788828;80;21118;-49
2021/01/20 09:06:16;;;;;;;0.00;0.00;;;;;;;-12.36;71.75;101511.31;1713142;82;21166;-48
2021/01/20 09:08:43;;;;;;;0.27;0.27;;;;;;;-12.29;70.86;101513.86;1740612;80;21494;-48
2021/01/20 09:11:10;;;;;;;0.10;0.10;;;;;;;-12.22;70.77;101512.50;1718492;82;21134;-48
2021/01/20 09:13:38;;;;;;;0.10;0.10;;;;;;;-12.10;70.69;101507.34;1735638;81;21164;-48
2021/01/20 09:16:07;;;;;;;0.53;0.53;;;;;;;-12.04;70.15;101507.77;1788722;78;21169;-48
2021/01/20 09:18:34;;;;;;;0.10;0.10;;;;;;;-11.98;69.86;101507.80;1822090;78;21126;-48
2021/01/20 09:21:02;;;;;;;0.23;0.23;;;;;;;-11.90;69.72;101504.14;1797294;78;21118;-48
2021/01/20 09:23:29;;;;;;;0.10;0.10;;;;;;;-11.83;69.36;101502.73;1793394;79;21174;-48
2021/01/20 09:25:57;;;;;;;0.10;0.10;;;;;;;-11.71;69.16;101505.81;1726223;83;21124;-48
2021/01/20 09:28:25;;;;;;;1.67;1.57;;;;;;;-11.61;68.58;101505.17;1731871;81;20971;-48
2021/01/20 09:30:52;;;;;;;0.50;0.50;;;;;;;-11.54;68.08;101499.82;1730764;81;21121;-48
2021/01/20 09:33:19;;;;;;;0.30;0.30;;;;;;;-11.43;67.90;101500.35;1734443;82;21139;-48
2021/01/20 09:35:47;;;;;;;0.50;0.50;;;;;;;-11.36;67.47;101501.59;1734679;82;21130;-48
2021/01/20 09:38:16;;;;;;;0.00;0.00;;;;;;;-11.28;67.24;101493.95;1734752;82;21535;-48
2021/01/20 09:40:43;;;;;;;0.10;0.10;;;;;;;-11.20;66.92;101494.70;1737603;81;21478;-48
2021/01/20 09:43:11;;;;;;;1.55;1.45;;;;;;;-11.14;66.64;101487.67;1731348;81;21102;-48
2021/01/20 09:45:38;;;;;;;0.80;0.80;;;;;;;-11.09;66.32;101485.53;1728035;81;21148;-49
2021/01/20 09:48:06;;;;;;;0.35;0.35;;;;;;;-11.02;66.01;101483.30;1729836;82;21106;-48
2021/01/20 09:50:34;;;;;;;0.00;0.00;;;;;;;-10.99;65.89;101483.89;1734621;82;21126;-49
2021/01/20 09:53:02;;;;;;;0.03;0.03;;;;;;;-11.01;65.59;101484.48;1756102;81;21150;-48
2021/01/20 09:55:30;;;;;;;0.10;0.10;;;;;;;-11.00;65.24;101478.27;1756219;80;21680;-48
2021/01/20 09:58:02;;;;;;;0.10;0.10;;;;;;;-10.97;64.86;101477.19;1755610;81;21411;-49
2021/01/20 10:00:29;;;;;;;1.40;1.40;;;;;;;-10.96;64.77;101475.73;1734103;81;21143;-49
2021/01/20 10:02:57;;;;;;;0.37;0.37;;;;;;;-10.96;64.67;101473.09;1755682;81;21622;-48
2021/01/20 10:05:25;;;;;;;0.10;0.10;;;;;;;-10.99;64.60;101472.50;1755690;81;20984;-49
2021/01/20 10:07:52;;;;;;;0.15;0.15;;;;;;;-10.97;64.57;101470.11;1756413;81;21130;-50
2021/01/20 10:10:19;;;;;;;0.10;0.10;;;;;;;-10.93;64.34;101463.62;1756330;80;21154;-50
2021/01/20 10:12:47;;;;;;;0.00;0.00;;;;;;;-10.87;64.42;101466.30;1755994;81;21166;-49
2021/01/20 10:15:15;;;;;;;0.10;0.10;;;;;;;-10.80;64.30;101465.34;1756173;80;21207;-48
2021/01/20 10:17:42;;;;;;;1.27;0.85;;;;;;;-10.75;64.24;101468.50;1755960;81;21174;-48
2021/01/20 10:20:10;;;;;;;0.65;0.60;;;;;;;-10.71;64.19;101459.36;1755194;80;21123;-48
2021/01/20 10:22:40;;;;;;;1.55;1.45;;;;;;;-10.64;64.16;101455.30;1754137;81;21142;-48
2021/01/20 10:25:09;;;;;;;0.10;0.10;;;;;;;-10.62;63.81;101456.03;1754383;81;21119;-48
2021/01/20 10:27:36;;;;;;;0.40;0.15;;;;;;;-10.62;63.68;101457.35;1755789;81;21138;-48
2021/01/20 10:30:05;;;;;;;0.00;0.00;;;;;;;-10.66;63.47;101451.93;1755877;80;21139;-48
2021/01/20 10:32:34;;;;;;;2.10;1.37;;;;;;;-10.70;63.27;101451.34;1755776;81;21158;-48
2021/01/20 10:35:08;;;;;;;0.85;0.85;;;;;;;-10.71;63.30;101452.77;1754172;80;21131;-48
2021/01/20 10:37:32;;;;;;;1.75;0.65;;;;;;;-10.74;63.00;101443.76;1753833;81;21155;-49
2021/01/20 10:39:59;;;;;;;0.20;0.20;;;;;;;-10.75;63.21;101444.73;1753075;80;21178;-48
2021/01/20 10:42:27;;;;;;;0.37;0.37;;;;;;;-10.73;63.10;101450.71;1751775;81;21146;-49
2021/01/20 10:44:54;;;;;;;0.10;0.10;;;;;;;-10.73;62.75;101446.30;1751970;81;21589;-50
2021/01/20 10:47:21;;;;;;;0.10;0.10;;;;;;;-10.76;62.72;101443.03;1755595;81;21135;-49
2021/01/20 10:49:49;;;;;;;0.03;0.03;;;;;;;-10.75;62.44;101444.73;1755357;81;21143;-49
2021/01/20 10:52:16;;;;;;;0.10;0.10;;;;;;;-10.75;62.57;101442.92;1751025;81;21123;-49
2021/01/20 10:54:45;;;;;;;0.13;0.13;;;;;;;-10.74;62.46;101439.31;1755152;81;21483;-50
2021/01/20 10:57:13;;;;;;;0.08;0.08;;;;;;;-10.74;62.42;101433.20;1751173;81;21538;-49
2021/01/20 10:59:43;;;;;;;0.10;0.10;;;;;;;-10.72;62.36;101429.48;1755909;81;21422;-48
2021/01/20 11:02:11;;;;;;;1.62;1.52;;;;;;;-10.73;62.40;101433.09;1755793;81;21150;-49
2021/01/20 11:04:39;;;;;;;0.10;0.10;;;;;;;-10.72;62.29;101432.12;1753668;80;21032;-49
2021/01/20 11:07:06;;;;;;;0.10;0.10;;;;;;;-10.71;62.11;101432.95;1740526;81;21691;-49
2021/01/20 11:09:34;;;;;;;0.10;0.10;;;;;;;-10.72;62.05;101425.52;1731987;82;21110;-49
2021/01/20 11:12:03;;;;;;;0.72;0.72;;;;;;;-10.72;61.88;101437.89;1731988;82;21150;-49
2021/01/20 11:14:30;;;;;;;0.10;0.10;;;;;;;-10.74;61.97;101437.16;1731960;82;21106;-49
2021/01/20 11:16:58;;;;;;;0.10;0.10;;;;;;;-10.74;61.94;101437.16;1738816;81;21185;-49
2021/01/20 11:19:26;;;;;;;0.10;0.10;;;;;;;-10.74;62.18;101434.03;1750388;80;21155;-49
2021/01/20 11:21:56;;;;;;;0.10;0.10;;;;;;;-10.75;62.28;101436.81;1708991;83;21139;-49
2021/01/20 11:24:23;;;;;;;0.10;0.10;;;;;;;-10.78;62.34;101433.89;1723842;82;21119;-49
2021/01/20 11:26:51;;;;;;;0.72;0.72;;;;;;;-10.79;62.39;101439.31;1723826;82;21168;-49
2021/01/20 11:29:21;;;;;;;1.22;0.53;;;;;;;-10.79;62.43;101436.67;1723696;81;21609;-49
2021/01/20 11:31:50;;;;;;;1.02;1.02;;;;;;;-10.77;62.49;101437.40;1731951;82;21454;-49